Index of /~xliang/aosc621

[ICO]NameLast modifiedSize

[PARENTDIR]Parent Directory  -
[   ]AOSC621Grade_Standing.pdf2018-04-24 11:05 62K
[   ]AOSC621L01_Atmosphere_Structure.pdf2018-01-24 23:32 8.5M
[   ]AOSC621L02_CloudFormation.pdf2018-02-01 11:07 5.3M
[   ]AOSC621L03_WarmCloud.pdf2018-02-08 08:14 3.2M
[   ]AOSC621L04_WarmRain.pdf2018-02-13 11:27 2.8M
[   ]AOSC621L05_ColdCloud.pdf2018-02-20 11:27 4.3M
[   ]AOSC621L06_ColdRain_short.pdf2018-02-22 11:15 1.7M
[   ]AOSC621L09_Review_Midterm1_short.pdf2018-02-22 11:16 4.4M
[   ]AOSC621L11_RadiationQuality_Quantity.pdf2018-03-29 10:54 3.7M
[   ]AOSC621L12_RadiationPrinciples_Emission.pdf2018-03-06 12:04 4.2M
[   ]AOSC621L13_Extinction_Scattering.pdf2018-03-13 11:25 6.2M
[   ]AOSC621L14_RadarMeteorology.pdf2018-03-15 11:18 6.0M
[   ]AOSC621L15_Gas_Absorption.pdf2018-03-15 11:21 5.9M
[   ]AOSC621L16_GreenhouseEffect_Spectroscopy.pdf2018-03-29 10:55 3.1M
[   ]AOSC621L17_Photolysis_Kinetics.pdf2018-04-05 12:05 3.9M
[   ]AOSC621L18_RadiativeTransfer_Basics.pdf2018-04-05 12:07 3.3M
[   ]AOSC621L19_FormulateRTP_PhaseFunction.pdf2018-04-17 13:56 3.4M
[   ]AOSC621L20_Review_Midterm2_cut.pdf2018-04-10 11:24 7.1M
[   ]AOSC621L22_Prototype_RTProblem.pdf2018-04-19 11:08 2.6M
[   ]AOSC621L23_TwoStreamApproximation.pdf2018-04-24 11:06 2.1M
[   ]AOSC621L24_CloudOpticalProperty.pdf2018-05-01 11:12 13M
[   ]AOSC621L27_RadiativeForcing_ClimateSensitivity.pdf2018-05-03 11:11 4.4M
[   ]AOSC621L28_RadiationBalance_ClimateFeedback.pdf2018-05-10 15:23 13M
[   ]AOSC621L29_Review_Finalterm.pdf2018-05-10 11:15 3.8M
[   ]HW2_FogDetection_reference.zip2016-02-10 22:20 11M
[   ]HW3_Albedo_reference.zip2016-03-01 09:05 10M
[   ]HW5_Aerosol_reference.zip2016-03-23 17:32 47M
[   ]Homework1-2018.pdf2018-02-01 08:03 499K
[   ]Homework2_2018.pdf2018-02-12 17:58 212K
[   ]Homework3_2018.pdf2018-02-28 22:10 88K
[   ]Homework4_2018.pdf2018-03-21 02:47 643K
[   ]Homework5_2018.pdf2018-04-18 09:42 222K
[   ]Khain_Review.pdf2018-02-28 22:15 9.1M
[   ]ReactionRate-Seinfeld2006.pdf2016-04-18 23:02 41K
[   ]Syllabus_AOSC621_Spring2018.pdf2018-01-24 23:35 200K